sensor_id;sensor_type;location;lat;lon;timestamp;temperature;humidity
46890;DHT22;32625;51.080;16.970;2024-03-29T00:01:25;9.30;99.70
46890;DHT22;32625;51.080;16.970;2024-03-29T00:03:51;9.30;98.80
46890;DHT22;32625;51.080;16.970;2024-03-29T00:06:18;9.20;99.10
46890;DHT22;32625;51.080;16.970;2024-03-29T00:08:44;9.20;98.90
46890;DHT22;32625;51.080;16.970;2024-03-29T00:11:11;9.20;99.70
46890;DHT22;32625;51.080;16.970;2024-03-29T00:13:37;9.20;99.50
46890;DHT22;32625;51.080;16.970;2024-03-29T00:16:03;9.10;99.90
46890;DHT22;32625;51.080;16.970;2024-03-29T00:18:29;9.10;99.90
46890;DHT22;32625;51.080;16.970;2024-03-29T00:20:54;9.10;99.70
46890;DHT22;32625;51.080;16.970;2024-03-29T00:23:20;9.10;99.50
46890;DHT22;32625;51.080;16.970;2024-03-29T00:25:47;9.10;98.90
46890;DHT22;32625;51.080;16.970;2024-03-29T00:28:12;9.20;99.60
46890;DHT22;32625;51.080;16.970;2024-03-29T00:30:38;9.10;98.90
46890;DHT22;32625;51.080;16.970;2024-03-29T00:33:04;9.20;99.10
46890;DHT22;32625;51.080;16.970;2024-03-29T00:35:30;9.10;98.80
46890;DHT22;32625;51.080;16.970;2024-03-29T00:37:57;9.10;99.30
46890;DHT22;32625;51.080;16.970;2024-03-29T00:40:23;9.10;98.70
46890;DHT22;32625;51.080;16.970;2024-03-29T00:42:48;9.00;99.40
46890;DHT22;32625;51.080;16.970;2024-03-29T00:45:15;9.00;99.60
46890;DHT22;32625;51.080;16.970;2024-03-29T00:47:40;9.00;99.60
46890;DHT22;32625;51.080;16.970;2024-03-29T00:50:07;8.90;98.90
46890;DHT22;32625;51.080;16.970;2024-03-29T00:52:35;8.90;99.70
46890;DHT22;32625;51.080;16.970;2024-03-29T00:55:01;8.90;99.40
46890;DHT22;32625;51.080;16.970;2024-03-29T00:57:29;8.90;99.90
46890;DHT22;32625;51.080;16.970;2024-03-29T00:59:55;8.80;99.60
46890;DHT22;32625;51.080;16.970;2024-03-29T01:02:22;8.80;99.80
46890;DHT22;32625;51.080;16.970;2024-03-29T01:04:50;8.80;99.90
46890;DHT22;32625;51.080;16.970;2024-03-29T01:07:16;8.80;99.70
46890;DHT22;32625;51.080;16.970;2024-03-29T01:09:43;8.70;99.90
46890;DHT22;32625;51.080;16.970;2024-03-29T01:12:10;8.70;99.90
46890;DHT22;32625;51.080;16.970;2024-03-29T01:14:36;8.70;99.90
46890;DHT22;32625;51.080;16.970;2024-03-29T01:17:02;8.70;99.90
46890;DHT22;32625;51.080;16.970;2024-03-29T01:19:29;8.70;99.90
46890;DHT22;32625;51.080;16.970;2024-03-29T01:21:55;8.70;99.90
46890;DHT22;32625;51.080;16.970;2024-03-29T01:24:20;8.60;99.90
46890;DHT22;32625;51.080;16.970;2024-03-29T01:26:46;8.60;99.90
46890;DHT22;32625;51.080;16.970;2024-03-29T01:29:12;8.60;99.90
46890;DHT22;32625;51.080;16.970;2024-03-29T01:31:38;8.60;99.90
46890;DHT22;32625;51.080;16.970;2024-03-29T01:34:04;8.50;99.90
46890;DHT22;32625;51.080;16.970;2024-03-29T01:36:30;8.50;99.90
46890;DHT22;32625;51.080;16.970;2024-03-29T01:38:56;8.50;99.90
46890;DHT22;32625;51.080;16.970;2024-03-29T01:41:24;8.50;99.90
46890;DHT22;32625;51.080;16.970;2024-03-29T01:43:53;8.50;99.90
46890;DHT22;32625;51.080;16.970;2024-03-29T01:46:21;8.50;99.90
46890;DHT22;32625;51.080;16.970;2024-03-29T01:48:48;8.50;99.90
46890;DHT22;32625;51.080;16.970;2024-03-29T01:51:15;8.50;99.90
46890;DHT22;32625;51.080;16.970;2024-03-29T01:53:42;8.50;99.90
46890;DHT22;32625;51.080;16.970;2024-03-29T01:56:09;8.50;99.90
46890;DHT22;32625;51.080;16.970;2024-03-29T01:58:35;8.60;99.90
46890;DHT22;32625;51.080;16.970;2024-03-29T02:01:03;8.60;99.90
46890;DHT22;32625;51.080;16.970;2024-03-29T02:03:30;8.60;99.90
46890;DHT22;32625;51.080;16.970;2024-03-29T02:05:56;8.60;99.90
46890;DHT22;32625;51.080;16.970;2024-03-29T02:08:23;8.50;99.90
46890;DHT22;32625;51.080;16.970;2024-03-29T02:10:49;8.50;99.90
46890;DHT22;32625;51.080;16.970;2024-03-29T02:13:17;8.50;99.90
46890;DHT22;32625;51.080;16.970;2024-03-29T02:15:42;8.60;99.90
46890;DHT22;32625;51.080;16.970;2024-03-29T02:18:09;8.60;99.90
46890;DHT22;32625;51.080;16.970;2024-03-29T02:20:35;8.60;99.90
46890;DHT22;32625;51.080;16.970;2024-03-29T02:23:14;8.60;99.90
46890;DHT22;32625;51.080;16.970;2024-03-29T02:25:41;8.50;99.90
46890;DHT22;32625;51.080;16.970;2024-03-29T02:28:07;8.50;99.90
46890;DHT22;32625;51.080;16.970;2024-03-29T02:30:33;8.50;99.90
46890;DHT22;32625;51.080;16.970;2024-03-29T02:33:00;8.50;99.90
46890;DHT22;32625;51.080;16.970;2024-03-29T02:35:26;8.40;99.90
46890;DHT22;32625;51.080;16.970;2024-03-29T02:37:53;8.40;99.90
46890;DHT22;32625;51.080;16.970;2024-03-29T02:40:20;8.50;99.90
46890;DHT22;32625;51.080;16.970;2024-03-29T02:42:47;8.50;99.90
46890;DHT22;32625;51.080;16.970;2024-03-29T02:45:14;8.50;99.90
46890;DHT22;32625;51.080;16.970;2024-03-29T02:47:40;8.50;99.90
46890;DHT22;32625;51.080;16.970;2024-03-29T02:50:09;8.40;99.90
46890;DHT22;32625;51.080;16.970;2024-03-29T02:52:36;8.50;99.90
46890;DHT22;32625;51.080;16.970;2024-03-29T02:55:02;8.40;99.90
46890;DHT22;32625;51.080;16.970;2024-03-29T02:57:29;8.40;99.90
46890;DHT22;32625;51.080;16.970;2024-03-29T02:59:55;8.40;99.90
46890;DHT22;32625;51.080;16.970;2024-03-29T03:02:21;8.40;99.90
46890;DHT22;32625;51.080;16.970;2024-03-29T03:04:47;8.30;99.90
46890;DHT22;32625;51.080;16.970;2024-03-29T03:07:13;8.40;99.90
46890;DHT22;32625;51.080;16.970;2024-03-29T03:09:58;8.30;99.90
46890;DHT22;32625;51.080;16.970;2024-03-29T03:12:43;8.30;99.90
46890;DHT22;32625;51.080;16.970;2024-03-29T03:15:09;8.30;99.90
46890;DHT22;32625;51.080;16.970;2024-03-29T03:17:35;8.20;99.90
46890;DHT22;32625;51.080;16.970;2024-03-29T03:20:01;8.10;99.90
46890;DHT22;32625;51.080;16.970;2024-03-29T03:22:31;8.10;99.90
46890;DHT22;32625;51.080;16.970;2024-03-29T03:24:57;8.10;99.90
46890;DHT22;32625;51.080;16.970;2024-03-29T03:27:23;8.10;99.90
46890;DHT22;32625;51.080;16.970;2024-03-29T03:29:49;8.10;99.90
46890;DHT22;32625;51.080;16.970;2024-03-29T03:32:15;8.10;99.90
46890;DHT22;32625;51.080;16.970;2024-03-29T03:34:41;8.10;99.90
46890;DHT22;32625;51.080;16.970;2024-03-29T03:37:08;8.10;99.90
46890;DHT22;32625;51.080;16.970;2024-03-29T03:39:34;8.10;99.90
46890;DHT22;32625;51.080;16.970;2024-03-29T03:42:00;8.00;99.90
46890;DHT22;32625;51.080;16.970;2024-03-29T03:44:26;8.00;99.90
46890;DHT22;32625;51.080;16.970;2024-03-29T03:46:55;8.00;99.90
46890;DHT22;32625;51.080;16.970;2024-03-29T03:49:21;8.00;99.90
46890;DHT22;32625;51.080;16.970;2024-03-29T03:51:48;8.00;99.90
46890;DHT22;32625;51.080;16.970;2024-03-29T03:54:14;7.90;99.90
46890;DHT22;32625;51.080;16.970;2024-03-29T03:56:40;7.90;99.90
46890;DHT22;32625;51.080;16.970;2024-03-29T03:59:06;7.90;99.90
46890;DHT22;32625;51.080;16.970;2024-03-29T04:01:34;7.80;99.90
46890;DHT22;32625;51.080;16.970;2024-03-29T04:04:00;7.80;99.90
46890;DHT22;32625;51.080;16.970;2024-03-29T04:06:27;7.80;99.90
46890;DHT22;32625;51.080;16.970;2024-03-29T04:08:53;7.70;99.90
46890;DHT22;32625;51.080;16.970;2024-03-29T04:11:19;7.60;99.90
46890;DHT22;32625;51.080;16.970;2024-03-29T04:13:46;7.60;99.90
46890;DHT22;32625;51.080;16.970;2024-03-29T04:16:12;7.60;99.90
46890;DHT22;32625;51.080;16.970;2024-03-29T04:18:38;7.60;99.90
46890;DHT22;32625;51.080;16.970;2024-03-29T04:21:04;7.60;99.90
46890;DHT22;32625;51.080;16.970;2024-03-29T04:23:30;7.60;99.90
46890;DHT22;32625;51.080;16.970;2024-03-29T04:25:58;7.50;99.90
46890;DHT22;32625;51.080;16.970;2024-03-29T04:28:25;7.50;99.90
46890;DHT22;32625;51.080;16.970;2024-03-29T04:30:55;7.50;99.90
46890;DHT22;32625;51.080;16.970;2024-03-29T04:33:22;7.50;99.90
46890;DHT22;32625;51.080;16.970;2024-03-29T04:36:02;7.50;99.90
46890;DHT22;32625;51.080;16.970;2024-03-29T04:38:29;7.50;99.90
46890;DHT22;32625;51.080;16.970;2024-03-29T04:40:56;7.40;99.90
46890;DHT22;32625;51.080;16.970;2024-03-29T04:43:27;7.40;99.90
46890;DHT22;32625;51.080;16.970;2024-03-29T04:46:13;7.30;99.90
46890;DHT22;32625;51.080;16.970;2024-03-29T04:48:41;7.30;99.90
46890;DHT22;32625;51.080;16.970;2024-03-29T04:51:08;7.30;99.90
46890;DHT22;32625;51.080;16.970;2024-03-29T04:53:41;7.30;99.90
46890;DHT22;32625;51.080;16.970;2024-03-29T04:56:07;7.30;99.90
46890;DHT22;32625;51.080;16.970;2024-03-29T04:58:34;7.30;99.90
46890;DHT22;32625;51.080;16.970;2024-03-29T05:01:00;7.30;99.90
46890;DHT22;32625;51.080;16.970;2024-03-29T05:03:26;7.20;99.90
46890;DHT22;32625;51.080;16.970;2024-03-29T05:05:52;7.20;99.90
46890;DHT22;32625;51.080;16.970;2024-03-29T05:08:19;7.10;99.90
46890;DHT22;32625;51.080;16.970;2024-03-29T05:10:48;7.10;99.90
46890;DHT22;32625;51.080;16.970;2024-03-29T05:13:16;7.10;99.90
46890;DHT22;32625;51.080;16.970;2024-03-29T05:15:43;7.00;99.90
46890;DHT22;32625;51.080;16.970;2024-03-29T05:18:09;7.00;99.90
46890;DHT22;32625;51.080;16.970;2024-03-29T05:20:35;7.00;99.90
46890;DHT22;32625;51.080;16.970;2024-03-29T05:23:02;7.00;99.90
46890;DHT22;32625;51.080;16.970;2024-03-29T05:25:28;7.00;99.90
46890;DHT22;32625;51.080;16.970;2024-03-29T05:27:54;7.00;99.90
46890;DHT22;32625;51.080;16.970;2024-03-29T05:30:20;7.00;99.90
46890;DHT22;32625;51.080;16.970;2024-03-29T05:32:47;7.10;99.90
46890;DHT22;32625;51.080;16.970;2024-03-29T05:35:13;7.20;99.90
46890;DHT22;32625;51.080;16.970;2024-03-29T05:37:42;7.20;99.90
46890;DHT22;32625;51.080;16.970;2024-03-29T05:40:12;7.30;99.90
46890;DHT22;32625;51.080;16.970;2024-03-29T05:42:39;7.30;99.90
46890;DHT22;32625;51.080;16.970;2024-03-29T05:45:05;7.40;99.90
46890;DHT22;32625;51.080;16.970;2024-03-29T05:47:46;7.50;99.90
46890;DHT22;32625;51.080;16.970;2024-03-29T05:50:13;7.50;99.90
46890;DHT22;32625;51.080;16.970;2024-03-29T05:52:39;7.60;99.90
46890;DHT22;32625;51.080;16.970;2024-03-29T05:55:05;7.60;99.90
46890;DHT22;32625;51.080;16.970;2024-03-29T05:57:34;7.60;99.90
46890;DHT22;32625;51.080;16.970;2024-03-29T06:00:05;7.60;99.90
46890;DHT22;32625;51.080;16.970;2024-03-29T06:02:32;7.60;99.90
46890;DHT22;32625;51.080;16.970;2024-03-29T06:04:58;7.60;99.90
46890;DHT22;32625;51.080;16.970;2024-03-29T06:07:24;7.70;99.90
46890;DHT22;32625;51.080;16.970;2024-03-29T06:09:50;7.80;99.90
46890;DHT22;32625;51.080;16.970;2024-03-29T06:12:16;7.80;99.90
46890;DHT22;32625;51.080;16.970;2024-03-29T06:14:42;7.80;99.90
46890;DHT22;32625;51.080;16.970;2024-03-29T06:17:27;7.90;99.90
46890;DHT22;32625;51.080;16.970;2024-03-29T06:19:54;7.90;99.90
46890;DHT22;32625;51.080;16.970;2024-03-29T06:22:26;8.00;99.90
46890;DHT22;32625;51.080;16.970;2024-03-29T06:24:56;8.10;99.90
46890;DHT22;32625;51.080;16.970;2024-03-29T06:27:33;8.20;99.90
46890;DHT22;32625;51.080;16.970;2024-03-29T06:30:01;8.30;99.90
46890;DHT22;32625;51.080;16.970;2024-03-29T06:32:27;8.40;99.90
46890;DHT22;32625;51.080;16.970;2024-03-29T06:34:53;8.40;99.90
46890;DHT22;32625;51.080;16.970;2024-03-29T06:37:19;8.50;99.90
46890;DHT22;32625;51.080;16.970;2024-03-29T06:39:51;8.60;99.90
46890;DHT22;32625;51.080;16.970;2024-03-29T06:42:17;8.60;99.80
46890;DHT22;32625;51.080;16.970;2024-03-29T06:44:43;8.60;99.90
46890;DHT22;32625;51.080;16.970;2024-03-29T06:47:10;8.70;99.90
46890;DHT22;32625;51.080;16.970;2024-03-29T06:49:37;8.80;99.90
46890;DHT22;32625;51.080;16.970;2024-03-29T06:52:03;8.80;99.90
46890;DHT22;32625;51.080;16.970;2024-03-29T06:54:30;8.90;99.90
46890;DHT22;32625;51.080;16.970;2024-03-29T06:56:56;9.00;99.80
46890;DHT22;32625;51.080;16.970;2024-03-29T06:59:23;9.10;99.00
46890;DHT22;32625;51.080;16.970;2024-03-29T07:01:50;9.20;99.00
46890;DHT22;32625;51.080;16.970;2024-03-29T07:04:23;9.20;97.80
46890;DHT22;32625;51.080;16.970;2024-03-29T07:06:50;9.40;97.50
46890;DHT22;32625;51.080;16.970;2024-03-29T07:09:18;9.50;96.70
46890;DHT22;32625;51.080;16.970;2024-03-29T07:11:49;9.70;96.90
46890;DHT22;32625;51.080;16.970;2024-03-29T07:14:17;9.80;96.30
46890;DHT22;32625;51.080;16.970;2024-03-29T07:16:44;9.90;95.50
46890;DHT22;32625;51.080;16.970;2024-03-29T07:19:11;10.00;95.90
46890;DHT22;32625;51.080;16.970;2024-03-29T07:21:45;10.00;94.60
46890;DHT22;32625;51.080;16.970;2024-03-29T07:24:12;10.10;94.00
46890;DHT22;32625;51.080;16.970;2024-03-29T07:26:39;10.20;94.30
46890;DHT22;32625;51.080;16.970;2024-03-29T07:29:06;10.20;93.10
46890;DHT22;32625;51.080;16.970;2024-03-29T07:31:35;10.30;93.10
46890;DHT22;32625;51.080;16.970;2024-03-29T07:34:01;10.40;92.30
46890;DHT22;32625;51.080;16.970;2024-03-29T07:36:27;10.40;92.70
46890;DHT22;32625;51.080;16.970;2024-03-29T07:38:59;10.50;93.00
46890;DHT22;32625;51.080;16.970;2024-03-29T07:41:25;10.60;92.20
46890;DHT22;32625;51.080;16.970;2024-03-29T07:43:53;10.60;92.70
46890;DHT22;32625;51.080;16.970;2024-03-29T07:46:32;10.70;92.40
46890;DHT22;32625;51.080;16.970;2024-03-29T07:48:58;10.80;92.40
46890;DHT22;32625;51.080;16.970;2024-03-29T07:51:24;10.80;92.00
46890;DHT22;32625;51.080;16.970;2024-03-29T07:53:50;10.90;92.20
46890;DHT22;32625;51.080;16.970;2024-03-29T07:56:17;11.00;92.00
46890;DHT22;32625;51.080;16.970;2024-03-29T07:58:44;11.00;91.50
46890;DHT22;32625;51.080;16.970;2024-03-29T08:01:10;11.10;90.60
46890;DHT22;32625;51.080;16.970;2024-03-29T08:03:36;11.20;90.20
46890;DHT22;32625;51.080;16.970;2024-03-29T08:06:03;11.20;85.60
46890;DHT22;32625;51.080;16.970;2024-03-29T08:08:33;11.30;88.20
46890;DHT22;32625;51.080;16.970;2024-03-29T08:10:59;11.30;85.90
46890;DHT22;32625;51.080;16.970;2024-03-29T08:13:26;11.30;85.80
46890;DHT22;32625;51.080;16.970;2024-03-29T08:15:57;11.40;86.80
46890;DHT22;32625;51.080;16.970;2024-03-29T08:18:24;11.50;86.90
46890;DHT22;32625;51.080;16.970;2024-03-29T08:20:51;11.60;82.40
46890;DHT22;32625;51.080;16.970;2024-03-29T08:23:17;11.70;84.20
46890;DHT22;32625;51.080;16.970;2024-03-29T08:25:43;11.80;83.40
46890;DHT22;32625;51.080;16.970;2024-03-29T08:28:10;11.80;83.30
46890;DHT22;32625;51.080;16.970;2024-03-29T08:30:36;11.90;82.80
46890;DHT22;32625;51.080;16.970;2024-03-29T08:33:03;12.00;81.60
46890;DHT22;32625;51.080;16.970;2024-03-29T08:35:33;12.00;81.10
46890;DHT22;32625;51.080;16.970;2024-03-29T08:38:03;12.10;81.70
46890;DHT22;32625;51.080;16.970;2024-03-29T08:40:29;12.20;81.20
46890;DHT22;32625;51.080;16.970;2024-03-29T08:42:58;12.20;80.70
46890;DHT22;32625;51.080;16.970;2024-03-29T08:45:24;12.30;79.50
46890;DHT22;32625;51.080;16.970;2024-03-29T08:47:50;12.30;78.70
46890;DHT22;32625;51.080;16.970;2024-03-29T08:50:16;12.30;76.60
46890;DHT22;32625;51.080;16.970;2024-03-29T08:52:43;12.40;76.90
46890;DHT22;32625;51.080;16.970;2024-03-29T08:55:10;12.50;75.80
46890;DHT22;32625;51.080;16.970;2024-03-29T08:57:36;12.60;76.10
46890;DHT22;32625;51.080;16.970;2024-03-29T09:00:03;12.70;77.00
46890;DHT22;32625;51.080;16.970;2024-03-29T09:02:29;12.70;75.00
46890;DHT22;32625;51.080;16.970;2024-03-29T09:04:56;12.80;73.50
46890;DHT22;32625;51.080;16.970;2024-03-29T09:07:24;12.80;73.70
46890;DHT22;32625;51.080;16.970;2024-03-29T09:09:50;12.90;75.70
46890;DHT22;32625;51.080;16.970;2024-03-29T09:12:16;13.00;75.40
46890;DHT22;32625;51.080;16.970;2024-03-29T09:14:45;13.10;76.10
46890;DHT22;32625;51.080;16.970;2024-03-29T09:17:12;13.10;76.40
46890;DHT22;32625;51.080;16.970;2024-03-29T09:19:37;13.20;73.50
46890;DHT22;32625;51.080;16.970;2024-03-29T09:22:04;13.30;73.60
46890;DHT22;32625;51.080;16.970;2024-03-29T09:24:30;13.40;73.80
46890;DHT22;32625;51.080;16.970;2024-03-29T09:26:57;13.50;72.10
46890;DHT22;32625;51.080;16.970;2024-03-29T09:29:24;13.60;71.50
46890;DHT22;32625;51.080;16.970;2024-03-29T09:31:50;13.70;69.50
46890;DHT22;32625;51.080;16.970;2024-03-29T09:34:16;13.80;68.90
46890;DHT22;32625;51.080;16.970;2024-03-29T09:36:42;13.90;69.30
46890;DHT22;32625;51.080;16.970;2024-03-29T09:39:09;14.10;67.80
46890;DHT22;32625;51.080;16.970;2024-03-29T09:41:35;14.10;66.20
46890;DHT22;32625;51.080;16.970;2024-03-29T09:44:04;14.10;66.80
46890;DHT22;32625;51.080;16.970;2024-03-29T09:46:33;14.20;65.70
46890;DHT22;32625;51.080;16.970;2024-03-29T09:49:01;14.20;64.20
46890;DHT22;32625;51.080;16.970;2024-03-29T09:51:29;14.30;65.00
46890;DHT22;32625;51.080;16.970;2024-03-29T09:53:57;14.40;63.60
46890;DHT22;32625;51.080;16.970;2024-03-29T09:56:27;14.50;64.60
46890;DHT22;32625;51.080;16.970;2024-03-29T09:58:54;14.60;64.10
46890;DHT22;32625;51.080;16.970;2024-03-29T10:01:20;14.70;61.40
46890;DHT22;32625;51.080;16.970;2024-03-29T10:03:49;14.80;61.70
46890;DHT22;32625;51.080;16.970;2024-03-29T10:06:19;14.90;60.60
46890;DHT22;32625;51.080;16.970;2024-03-29T10:08:47;14.90;61.00
46890;DHT22;32625;51.080;16.970;2024-03-29T10:11:14;15.00;60.40
46890;DHT22;32625;51.080;16.970;2024-03-29T10:13:45;15.10;61.30
46890;DHT22;32625;51.080;16.970;2024-03-29T10:16:12;15.10;61.20
46890;DHT22;32625;51.080;16.970;2024-03-29T10:18:40;15.20;60.50
46890;DHT22;32625;51.080;16.970;2024-03-29T10:21:08;15.20;58.60
46890;DHT22;32625;51.080;16.970;2024-03-29T10:23:35;15.30;59.60
46890;DHT22;32625;51.080;16.970;2024-03-29T10:26:02;15.30;59.40
46890;DHT22;32625;51.080;16.970;2024-03-29T10:28:36;15.30;59.30
46890;DHT22;32625;51.080;16.970;2024-03-29T10:31:03;15.30;60.20
46890;DHT22;32625;51.080;16.970;2024-03-29T10:33:34;15.30;60.40
46890;DHT22;32625;51.080;16.970;2024-03-29T10:36:00;15.40;58.60
46890;DHT22;32625;51.080;16.970;2024-03-29T10:38:27;15.40;58.50
46890;DHT22;32625;51.080;16.970;2024-03-29T10:40:54;15.50;60.00
46890;DHT22;32625;51.080;16.970;2024-03-29T10:43:21;15.60;60.00
46890;DHT22;32625;51.080;16.970;2024-03-29T10:45:50;15.70;58.70
46890;DHT22;32625;51.080;16.970;2024-03-29T10:48:21;15.70;58.00
46890;DHT22;32625;51.080;16.970;2024-03-29T10:50:48;15.90;57.50
46890;DHT22;32625;51.080;16.970;2024-03-29T10:53:17;16.00;55.80
46890;DHT22;32625;51.080;16.970;2024-03-29T10:55:44;16.10;56.00
46890;DHT22;32625;51.080;16.970;2024-03-29T10:58:11;16.20;55.70
46890;DHT22;32625;51.080;16.970;2024-03-29T11:00:39;16.20;55.80
46890;DHT22;32625;51.080;16.970;2024-03-29T11:03:23;16.10;55.10
46890;DHT22;32625;51.080;16.970;2024-03-29T11:05:56;15.90;55.20
46890;DHT22;32625;51.080;16.970;2024-03-29T11:08:34;15.90;55.30
46890;DHT22;32625;51.080;16.970;2024-03-29T11:11:05;15.90;56.30
46890;DHT22;32625;51.080;16.970;2024-03-29T11:13:34;15.80;57.10
46890;DHT22;32625;51.080;16.970;2024-03-29T11:16:03;15.80;56.80
46890;DHT22;32625;51.080;16.970;2024-03-29T11:18:29;15.80;56.80
46890;DHT22;32625;51.080;16.970;2024-03-29T11:20:58;15.80;56.00
46890;DHT22;32625;51.080;16.970;2024-03-29T11:23:26;15.80;56.40
46890;DHT22;32625;51.080;16.970;2024-03-29T11:25:54;15.80;56.80
46890;DHT22;32625;51.080;16.970;2024-03-29T11:31:01;15.90;58.50
46890;DHT22;32625;51.080;16.970;2024-03-29T11:36:17;16.00;56.30
46890;DHT22;32625;51.080;16.970;2024-03-29T11:38:50;16.10;56.80
46890;DHT22;32625;51.080;16.970;2024-03-29T11:41:19;16.30;57.20
46890;DHT22;32625;51.080;16.970;2024-03-29T11:43:47;16.40;56.20
46890;DHT22;32625;51.080;16.970;2024-03-29T11:46:14;16.50;56.50
46890;DHT22;32625;51.080;16.970;2024-03-29T11:48:41;16.50;55.60
46890;DHT22;32625;51.080;16.970;2024-03-29T11:51:13;16.50;56.90
46890;DHT22;32625;51.080;16.970;2024-03-29T11:53:44;16.60;55.50
46890;DHT22;32625;51.080;16.970;2024-03-29T11:56:11;16.70;57.00
46890;DHT22;32625;51.080;16.970;2024-03-29T11:58:40;16.90;55.50
46890;DHT22;32625;51.080;16.970;2024-03-29T12:01:07;17.00;55.00
46890;DHT22;32625;51.080;16.970;2024-03-29T12:03:40;17.00;56.30
46890;DHT22;32625;51.080;16.970;2024-03-29T12:06:07;17.10;56.60
46890;DHT22;32625;51.080;16.970;2024-03-29T12:08:41;17.10;57.20
46890;DHT22;32625;51.080;16.970;2024-03-29T12:11:08;17.10;55.40
46890;DHT22;32625;51.080;16.970;2024-03-29T12:13:35;17.20;56.10
46890;DHT22;32625;51.080;16.970;2024-03-29T12:16:02;17.20;56.10
46890;DHT22;32625;51.080;16.970;2024-03-29T12:18:29;17.20;56.30
46890;DHT22;32625;51.080;16.970;2024-03-29T12:20:57;17.20;55.60
46890;DHT22;32625;51.080;16.970;2024-03-29T12:23:23;17.20;56.50
46890;DHT22;32625;51.080;16.970;2024-03-29T12:25:53;17.30;56.90
46890;DHT22;32625;51.080;16.970;2024-03-29T12:28:21;17.30;55.90
46890;DHT22;32625;51.080;16.970;2024-03-29T12:30:48;17.40;54.80
46890;DHT22;32625;51.080;16.970;2024-03-29T12:33:16;17.50;54.60
46890;DHT22;32625;51.080;16.970;2024-03-29T12:35:43;17.50;55.00
46890;DHT22;32625;51.080;16.970;2024-03-29T12:38:12;17.60;53.20
46890;DHT22;32625;51.080;16.970;2024-03-29T12:40:41;17.70;54.00
46890;DHT22;32625;51.080;16.970;2024-03-29T12:43:09;17.60;54.60
46890;DHT22;32625;51.080;16.970;2024-03-29T12:45:37;17.60;53.70
46890;DHT22;32625;51.080;16.970;2024-03-29T12:48:12;17.60;54.30
46890;DHT22;32625;51.080;16.970;2024-03-29T12:50:41;17.50;54.50
46890;DHT22;32625;51.080;16.970;2024-03-29T12:53:09;17.40;55.80
46890;DHT22;32625;51.080;16.970;2024-03-29T12:55:35;17.40;55.70
46890;DHT22;32625;51.080;16.970;2024-03-29T12:58:07;17.30;57.30
46890;DHT22;32625;51.080;16.970;2024-03-29T13:00:36;17.20;55.70
46890;DHT22;32625;51.080;16.970;2024-03-29T13:03:02;17.10;56.10
46890;DHT22;32625;51.080;16.970;2024-03-29T13:05:28;17.00;57.00
46890;DHT22;32625;51.080;16.970;2024-03-29T13:08:03;17.00;57.10
46890;DHT22;32625;51.080;16.970;2024-03-29T13:10:31;16.90;57.00
46890;DHT22;32625;51.080;16.970;2024-03-29T13:12:57;16.90;57.90
46890;DHT22;32625;51.080;16.970;2024-03-29T13:15:25;16.90;57.70
46890;DHT22;32625;51.080;16.970;2024-03-29T13:17:52;17.00;58.20
46890;DHT22;32625;51.080;16.970;2024-03-29T13:20:19;17.00;58.40
46890;DHT22;32625;51.080;16.970;2024-03-29T13:22:46;17.00;58.20
46890;DHT22;32625;51.080;16.970;2024-03-29T13:25:14;17.10;58.50
46890;DHT22;32625;51.080;16.970;2024-03-29T13:27:41;17.10;59.60
46890;DHT22;32625;51.080;16.970;2024-03-29T13:30:08;17.10;60.40
46890;DHT22;32625;51.080;16.970;2024-03-29T13:32:36;17.10;60.40
46890;DHT22;32625;51.080;16.970;2024-03-29T13:35:02;17.10;59.50
46890;DHT22;32625;51.080;16.970;2024-03-29T13:37:32;17.10;59.40
46890;DHT22;32625;51.080;16.970;2024-03-29T13:39:58;17.10;59.40
46890;DHT22;32625;51.080;16.970;2024-03-29T13:42:24;17.10;59.80
46890;DHT22;32625;51.080;16.970;2024-03-29T13:44:51;17.10;59.80
46890;DHT22;32625;51.080;16.970;2024-03-29T13:47:18;17.20;59.10
46890;DHT22;32625;51.080;16.970;2024-03-29T13:49:45;17.20;61.30
46890;DHT22;32625;51.080;16.970;2024-03-29T13:52:14;17.20;60.10
46890;DHT22;32625;51.080;16.970;2024-03-29T13:54:45;17.30;58.70
46890;DHT22;32625;51.080;16.970;2024-03-29T13:57:13;17.30;59.70
46890;DHT22;32625;51.080;16.970;2024-03-29T13:59:40;17.30;60.00
46890;DHT22;32625;51.080;16.970;2024-03-29T14:02:17;17.30;59.90
46890;DHT22;32625;51.080;16.970;2024-03-29T14:04:44;17.40;58.90
46890;DHT22;32625;51.080;16.970;2024-03-29T14:07:12;17.50;57.80
46890;DHT22;32625;51.080;16.970;2024-03-29T14:09:43;17.80;57.80
46890;DHT22;32625;51.080;16.970;2024-03-29T14:12:10;18.30;56.90
46890;DHT22;32625;51.080;16.970;2024-03-29T14:14:36;18.90;57.80
46890;DHT22;32625;51.080;16.970;2024-03-29T14:17:03;18.80;54.30
46890;DHT22;32625;51.080;16.970;2024-03-29T14:19:33;18.60;55.80
46890;DHT22;32625;51.080;16.970;2024-03-29T14:22:03;18.40;57.00
46890;DHT22;32625;51.080;16.970;2024-03-29T14:24:29;18.30;55.80
46890;DHT22;32625;51.080;16.970;2024-03-29T14:27:02;18.10;57.10
46890;DHT22;32625;51.080;16.970;2024-03-29T14:29:31;17.90;56.50
46890;DHT22;32625;51.080;16.970;2024-03-29T14:31:57;17.80;57.50
46890;DHT22;32625;51.080;16.970;2024-03-29T14:34:24;17.80;57.00
46890;DHT22;32625;51.080;16.970;2024-03-29T14:36:51;17.70;58.10
46890;DHT22;32625;51.080;16.970;2024-03-29T14:39:18;17.70;56.80
46890;DHT22;32625;51.080;16.970;2024-03-29T14:41:44;17.80;56.10
46890;DHT22;32625;51.080;16.970;2024-03-29T14:44:12;18.00;56.20
46890;DHT22;32625;51.080;16.970;2024-03-29T14:46:38;18.10;55.50
46890;DHT22;32625;51.080;16.970;2024-03-29T14:49:06;18.10;55.10
46890;DHT22;32625;51.080;16.970;2024-03-29T14:51:34;18.10;55.90
46890;DHT22;32625;51.080;16.970;2024-03-29T14:54:00;18.10;56.10
46890;DHT22;32625;51.080;16.970;2024-03-29T14:56:31;18.10;54.70
46890;DHT22;32625;51.080;16.970;2024-03-29T14:59:05;18.10;54.60
46890;DHT22;32625;51.080;16.970;2024-03-29T15:01:32;18.10;55.80
46890;DHT22;32625;51.080;16.970;2024-03-29T15:03:59;17.90;55.90
46890;DHT22;32625;51.080;16.970;2024-03-29T15:06:26;17.70;56.90
46890;DHT22;32625;51.080;16.970;2024-03-29T15:08:54;17.60;56.80
46890;DHT22;32625;51.080;16.970;2024-03-29T15:11:20;17.50;57.30
46890;DHT22;32625;51.080;16.970;2024-03-29T15:13:48;17.50;56.90
46890;DHT22;32625;51.080;16.970;2024-03-29T15:16:16;17.40;58.00
46890;DHT22;32625;51.080;16.970;2024-03-29T15:18:43;17.30;56.90
46890;DHT22;32625;51.080;16.970;2024-03-29T15:21:09;17.20;59.40
46890;DHT22;32625;51.080;16.970;2024-03-29T15:23:36;17.10;60.60
46890;DHT22;32625;51.080;16.970;2024-03-29T15:26:02;17.10;59.60
46890;DHT22;32625;51.080;16.970;2024-03-29T15:28:30;17.00;60.00
46890;DHT22;32625;51.080;16.970;2024-03-29T15:31:19;17.00;60.30